Time;durP1;ratioP1;P1;durP2;ratioP2;P2;SDS_P1;SDS_P2;PMS_P1;PMS_P2;Temp;Humidity;BMP_temperature;BMP_pressure;BME280_temperature;BME280_humidity;BME280_pressure;Samples;Min_cycle;Max_cycle;Signal;HPM_P1;HPM_P2
2023/08/03 00:00:47;;;;;;;7.83;2.40;;;18.20;99.90;;;;;;6214366;23;20794;-79
2023/08/03 00:10:05;;;;;;;6.00;2.20;;;18.20;99.90;;;;;;6200600;23;20843;-77
2023/08/03 00:16:26;;;;;;;6.33;1.60;;;18.20;99.90;;;;;;6218447;23;20425;-78
2023/08/03 00:19:59;;;;;;;2.60;2.23;;;18.20;99.90;;;;;;6217655;23;20414;-78
2023/08/03 00:26:11;;;;;;;6.97;2.30;;;18.20;99.90;;;;;;6215186;23;20493;-79
2023/08/03 00:29:47;;;;;;;2.57;1.67;;;18.30;99.90;;;;;;6096165;23;20505;-77
2023/08/03 00:39:43;;;;;;;5.60;1.87;;;18.30;99.90;;;;;;6214059;23;20911;-80
2023/08/03 00:42:37;;;;;;;6.00;2.30;;;18.30;99.90;;;;;;6107730;23;20418;-78
2023/08/03 00:48:17;;;;;;;10.40;2.40;;;18.20;99.90;;;;;;6202978;23;20800;-76
2023/08/03 00:54:16;;;;;;;6.60;1.90;;;18.30;99.90;;;;;;6217768;23;20398;-78
2023/08/03 01:00:36;;;;;;;5.37;2.30;;;18.30;99.90;;;;;;6176983;23;20407;-77
2023/08/03 01:06:48;;;;;;;3.77;2.03;;;18.30;99.90;;;;;;6214427;23;20457;-77
2023/08/03 01:13:29;;;;;;;5.90;2.27;;;18.20;99.90;;;;;;6115161;23;20568;-80
2023/08/03 01:16:18;;;;;;;5.80;2.77;;;18.00;99.90;;;;;;6126161;23;20524;-79
2023/08/03 01:25:13;;;;;;;5.87;2.03;;;18.30;99.90;;;;;;6199116;23;20434;-77
2023/08/03 01:31:13;;;;;;;5.77;2.63;;;18.40;99.90;;;;;;6208993;23;20414;-78
2023/08/03 01:37:03;;;;;;;5.23;2.00;;;18.50;99.90;;;;;;6208492;23;20439;-78
2023/08/03 01:45:45;;;;;;;7.70;2.47;;;18.60;99.90;;;;;;6217105;23;20419;-78
2023/08/03 01:48:38;;;;;;;4.10;2.00;;;18.60;99.90;;;;;;6217482;23;20413;-77
2023/08/03 01:51:39;;;;;;;3.70;2.03;;;18.60;99.90;;;;;;6220206;23;20501;-80
2023/08/03 01:54:20;;;;;;;8.30;2.17;;;18.60;99.90;;;;;;6219205;23;20438;-78
2023/08/03 02:00:35;;;;;;;4.30;2.00;;;18.60;99.90;;;;;;6209767;23;20855;-78
2023/08/03 02:06:39;;;;;;;7.20;1.60;;;18.50;99.90;;;;;;6221820;23;20580;-80
2023/08/03 02:15:58;;;;;;;3.50;1.67;;;18.40;99.90;;;;;;6229865;23;20472;-79
2023/08/03 02:19:16;;;;;;;6.43;2.40;;;18.40;99.90;;;;;;6205594;23;20450;-78
2023/08/03 02:22:16;;;;;;;6.37;2.03;;;18.40;99.90;;;;;;6232096;23;20469;-80
2023/08/03 02:25:23;;;;;;;2.20;1.10;;;18.40;99.90;;;;;;6231264;23;20488;-78
2023/08/03 02:28:26;;;;;;;;;;;;;;;;;;;;;
2023/08/03 02:31:43;;;;;;;;;;;;;;;;;;;;;
2023/08/03 02:34:32;;;;;;;2.80;1.80;;;18.40;99.90;;;;;;6219098;23;20421;-80
2023/08/03 02:37:14;;;;;;;3.23;1.50;;;18.30;99.90;;;;;;6232749;23;20458;-78
2023/08/03 02:40:10;;;;;;;9.87;1.87;;;18.40;99.90;;;;;;6230379;23;20421;-78
2023/08/03 02:46:12;;;;;;;4.40;1.97;;;18.30;99.90;;;;;;6217326;23;20421;-79
2023/08/03 02:52:20;;;;;;;6.97;1.67;;;18.20;99.90;;;;;;6232776;23;20414;-80
2023/08/03 02:55:01;;;;;;;8.20;2.30;;;18.20;99.90;;;;;;6222433;23;20481;-78
2023/08/03 03:00:52;;;;;;;6.40;2.67;;;18.10;99.90;;;;;;6222698;23;20398;-77
2023/08/03 03:03:33;;;;;;;6.17;2.43;;;18.10;99.90;;;;;;6220613;23;20417;-77
2023/08/03 03:06:20;;;;;;;5.80;2.30;;;18.10;99.90;;;;;;6221269;23;20426;-80
2023/08/03 03:09:30;;;;;;;10.43;2.53;;;18.00;99.90;;;;;;6220059;23;20509;-79
2023/08/03 03:15:21;;;;;;;4.30;1.83;;;18.00;99.90;;;;;;6210555;23;20430;-78
2023/08/03 03:21:22;;;;;;;;;;;;;;;;;;;;;
2023/08/03 03:24:03;;;;;;;9.30;2.50;;;17.90;99.90;;;;;;6220510;23;20904;-78
2023/08/03 03:26:41;;;;;;;4.90;1.87;;;17.90;99.90;;;;;;6222632;23;20441;-79
2023/08/03 03:29:41;;;;;;;7.00;2.53;;;17.80;99.90;;;;;;6222740;23;20902;-77
2023/08/03 03:32:26;;;;;;;3.43;1.93;;;17.80;99.90;;;;;;6220342;23;20414;-77
2023/08/03 03:35:13;;;;;;;5.83;1.93;;;17.80;99.90;;;;;;6220697;23;20430;-78
2023/08/03 03:43:22;;;;;;;3.80;1.50;;;17.70;99.90;;;;;;6223129;23;20410;-80
2023/08/03 03:46:07;;;;;;;3.67;1.70;;;17.70;99.90;;;;;;6225696;23;20498;-78
2023/08/03 03:48:49;;;;;;;6.00;2.00;;;17.70;99.90;;;;;;6224673;23;20407;-78
2023/08/03 03:51:21;;;;;;;3.63;2.10;;;17.70;99.90;;;;;;6227749;23;20410;-78
2023/08/03 03:54:01;;;;;;;4.67;1.77;;;17.70;99.90;;;;;;6227581;23;20421;-78
2023/08/03 03:57:00;;;;;;;7.10;2.23;;;17.70;99.90;;;;;;6227330;23;20469;-78
2023/08/03 03:59:36;;;;;;;8.03;2.20;;;17.70;99.90;;;;;;6227243;23;20430;-79
2023/08/03 04:02:30;;;;;;;6.67;1.83;;;17.70;99.90;;;;;;6228734;23;20410;-79
2023/08/03 04:05:39;;;;;;;;;;;;;;;;;;;;;
2023/08/03 04:08:31;;;;;;;6.00;2.13;;;17.60;99.90;;;;;;6224488;23;20397;-77
2023/08/03 04:11:08;;;;;;;5.17;1.70;;;17.60;99.90;;;;;;6228194;23;20421;-80
2023/08/03 04:16:36;;;;;;;4.80;2.10;;;17.20;99.90;;;;;;6208235;23;20415;-79
2023/08/03 04:19:13;;;;;;;5.70;2.07;;;17.60;99.90;;;;;;6225471;23;20431;-79
2023/08/03 04:21:54;;;;;;;4.43;2.00;;;17.60;99.90;;;;;;6224177;23;20449;-78
2023/08/03 04:24:35;;;;;;;6.23;2.60;;;17.50;99.90;;;;;;6221972;23;20474;-78
2023/08/03 04:27:20;;;;;;;3.07;1.47;;;17.50;99.90;;;;;;6221477;23;20502;-78
2023/08/03 04:29:53;;;;;;;2.73;1.40;;;17.50;99.90;;;;;;6222411;23;20410;-78
2023/08/03 04:32:28;;;;;;;7.53;1.60;;;17.50;99.90;;;;;;6222045;23;20421;-79
2023/08/03 04:35:01;;;;;;;3.87;1.63;;;17.50;99.90;;;;;;6221157;23;20436;-79
2023/08/03 04:40:28;;;;;;;3.80;1.33;;;17.60;99.90;;;;;;6218107;23;20490;-77
2023/08/03 04:43:02;;;;;;;3.03;1.70;;;17.60;99.90;;;;;;6221376;23;20811;-77
2023/08/03 04:45:34;;;;;;;4.47;1.33;;;17.60;99.90;;;;;;6220847;23;20418;-78
2023/08/03 04:48:11;;;;;;;2.80;1.40;;;17.60;99.90;;;;;;6220018;23;20845;-78
2023/08/03 04:50:43;;;;;;;3.53;1.83;;;17.60;99.90;;;;;;6217977;23;20387;-79
2023/08/03 04:53:19;;;;;;;2.70;1.20;;;17.60;99.90;;;;;;6219426;23;20406;-79
2023/08/03 04:55:50;;;;;;;3.37;1.30;;;17.60;99.90;;;;;;6218178;23;20437;-79
2023/08/03 04:58:22;;;;;;;3.17;1.50;;;17.70;99.90;;;;;;6218350;23;20469;-79
2023/08/03 05:00:57;;;;;;;4.37;1.20;;;17.90;99.90;;;;;;6217921;23;20387;-78
2023/08/03 05:03:30;;;;;;;4.10;1.33;;;17.70;99.90;;;;;;6218899;23;20647;-78
2023/08/03 05:06:09;;;;;;;2.63;1.30;;;17.70;99.90;;;;;;6219871;23;20427;-78
2023/08/03 05:08:43;;;;;;;3.57;1.17;;;17.70;99.90;;;;;;6220310;23;20752;-78
2023/08/03 05:11:28;;;;;;;2.27;1.10;;;17.70;99.90;;;;;;6220059;23;20415;-77
2023/08/03 05:14:13;;;;;;;4.47;2.30;;;17.70;99.90;;;;;;6218177;23;20383;-80
2023/08/03 05:16:53;;;;;;;5.50;1.67;;;17.70;99.90;;;;;;6218607;23;20435;-78
2023/08/03 05:19:35;;;;;;;4.00;1.47;;;17.70;99.90;;;;;;6219319;23;20460;-78
2023/08/03 05:22:21;;;;;;;1.97;1.30;;;17.70;99.90;;;;;;6220097;23;20414;-79
2023/08/03 05:24:53;;;;;;;3.30;1.20;;;17.70;99.90;;;;;;6220110;23;20465;-78
2023/08/03 05:27:24;;;;;;;6.73;2.03;;;17.70;99.90;;;;;;6217332;23;20437;-79
2023/08/03 05:29:55;;;;;;;3.20;1.17;;;17.70;99.90;;;;;;6218605;23;20421;-79
2023/08/03 05:32:32;;;;;;;2.77;1.00;;;17.70;99.90;;;;;;6219648;23;20410;-79
2023/08/03 05:35:05;;;;;;;1.60;1.00;;;17.70;99.90;;;;;;6220796;23;20464;-79
2023/08/03 05:37:35;;;;;;;3.50;1.10;;;17.70;99.90;;;;;;6220161;23;20423;-79
2023/08/03 05:40:04;;;;;;;4.70;1.17;;;17.70;99.90;;;;;;6223322;23;20417;-79
2023/08/03 05:42:38;;;;;;;2.53;1.37;;;17.60;99.90;;;;;;6219724;23;20407;-79
2023/08/03 05:45:20;;;;;;;3.03;1.53;;;17.70;99.90;;;;;;6219000;23;20460;-78
2023/08/03 05:47:51;;;;;;;2.60;1.10;;;17.70;99.90;;;;;;6221435;23;20415;-79
2023/08/03 05:50:24;;;;;;;2.97;0.83;;;17.60;99.90;;;;;;6220063;23;20460;-78
2023/08/03 05:52:56;;;;;;;3.43;1.43;;;17.70;99.90;;;;;;6222101;23;20461;-80
2023/08/03 05:55:58;;;;;;;2.00;0.90;;;17.70;99.90;;;;;;6222035;23;20484;-79
2023/08/03 05:58:29;;;;;;;1.43;1.03;;;17.70;99.90;;;;;;6211994;23;20434;-79
2023/08/03 06:00:57;;;;;;;1.20;0.90;;;17.70;99.90;;;;;;6219528;23;20386;-79
2023/08/03 06:03:36;;;;;;;3.60;1.00;;;17.70;99.90;;;;;;6219074;23;20451;-78
2023/08/03 06:06:09;;;;;;;3.10;1.47;;;17.70;99.90;;;;;;6217379;23;20520;-78
2023/08/03 06:14:20;;;;;;;2.20;0.80;;;17.70;99.90;;;;;;6217223;23;20445;-80
2023/08/03 06:16:57;;;;;;;6.17;1.10;;;17.70;99.90;;;;;;6216607;23;20413;-79
2023/08/03 06:19:49;;;;;;;;;;;;;;;;;;;;;
2023/08/03 06:22:32;;;;;;;2.77;1.13;;;17.70;99.90;;;;;;6215670;23;20474;-77
2023/08/03 06:25:16;;;;;;;1.40;0.93;;;17.80;99.90;;;;;;6219401;23;20701;-78
2023/08/03 06:27:59;;;;;;;1.80;0.93;;;17.80;99.90;;;;;;6220850;23;20494;-78
2023/08/03 06:33:56;;;;;;;3.23;1.10;;;17.90;99.90;;;;;;6214460;23;20455;-79
2023/08/03 06:39:26;;;;;;;1.30;1.00;;;18.00;99.90;;;;;;6214400;23;20449;-77
2023/08/03 06:42:18;;;;;;;2.40;0.90;;;18.30;99.90;;;;;;6218488;23;20410;-77
2023/08/03 06:45:00;;;;;;;2.50;0.90;;;18.40;99.90;;;;;;6218058;23;20521;-78
2023/08/03 06:47:36;;;;;;;2.10;1.07;;;18.60;99.90;;;;;;6219408;23;20414;-79
2023/08/03 06:53:24;;;;;;;2.00;1.00;;;19.00;99.90;;;;;;6219843;23;20760;-77
2023/08/03 06:55:59;;;;;;;1.07;0.80;;;19.10;99.90;;;;;;6221662;23;20807;-79
2023/08/03 06:58:33;;;;;;;1.53;0.87;;;19.10;99.90;;;;;;6218010;23;20441;-79
2023/08/03 07:01:07;;;;;;;1.90;0.80;;;19.20;99.90;;;;;;6218341;23;20968;-78
2023/08/03 07:03:36;;;;;;;3.93;1.40;;;19.30;99.90;;;;;;6217982;23;20651;-78
2023/08/03 07:06:17;;;;;;;4.67;1.50;;;19.40;99.90;;;;;;6219388;23;20445;-78
2023/08/03 07:08:50;;;;;;;3.00;1.00;;;19.60;99.90;;;;;;6219768;23;20464;-78
2023/08/03 07:11:22;;;;;;;2.67;1.43;;;19.40;99.90;;;;;;6220907;23;20394;-79
2023/08/03 07:14:20;;;;;;;1.87;1.17;;;19.50;99.90;;;;;;6218667;23;20414;-78
2023/08/03 07:16:54;;;;;;;2.30;1.00;;;19.60;99.90;;;;;;6217387;23;20411;-78
2023/08/03 07:19:40;;;;;;;2.10;1.00;;;19.70;99.90;;;;;;6217636;23;20512;-80
2023/08/03 07:22:31;;;;;;;1.23;1.00;;;19.80;99.90;;;;;;6224340;23;20474;-77
2023/08/03 07:25:06;;;;;;;2.23;0.90;;;19.80;99.90;;;;;;6234135;23;20430;-78
2023/08/03 07:27:42;;;;;;;1.63;1.17;;;19.70;99.90;;;;;;6218725;23;20788;-78
2023/08/03 07:30:24;;;;;;;1.90;0.80;;;19.70;99.90;;;;;;6222393;23;20382;-78
2023/08/03 07:33:15;;;;;;;3.57;1.27;;;19.90;99.90;;;;;;6224027;23;20427;-78
2023/08/03 07:39:31;;;;;;;3.30;0.97;;;19.90;99.90;;;;;;6223535;23;20449;-79
2023/08/03 07:42:53;;;;;;;2.67;1.20;;;20.10;99.90;;;;;;6221799;23;20434;-78
2023/08/03 07:45:48;;;;;;;1.20;0.73;;;20.10;99.90;;;;;;6199613;23;20931;-78
2023/08/03 07:48:33;;;;;;;2.27;1.00;;;20.40;99.90;;;;;;6222251;23;20474;-79
2023/08/03 07:51:22;;;;;;;2.80;1.07;;;20.40;99.90;;;;;;6223077;23;20448;-79
2023/08/03 07:54:08;;;;;;;2.53;0.80;;;20.50;99.90;;;;;;6223016;23;20415;-78
2023/08/03 07:56:46;;;;;;;1.83;1.20;;;20.40;99.90;;;;;;6220985;23;20434;-78
2023/08/03 07:59:32;;;;;;;1.73;0.90;;;20.50;99.90;;;;;;6227887;23;20438;-79
2023/08/03 08:02:09;;;;;;;5.60;0.87;;;20.50;99.90;;;;;;6227972;23;20469;-78
2023/08/03 08:05:31;;;;;;;3.23;1.23;;;20.60;99.90;;;;;;6223047;23;20441;-79
2023/08/03 08:11:10;;;;;;;2.23;1.00;;;21.40;99.90;;;;;;6101462;23;20406;-78
2023/08/03 08:14:00;;;;;;;1.70;1.07;;;21.20;99.90;;;;;;6100330;23;20413;-79
2023/08/03 08:16:51;;;;;;;2.37;1.20;;;21.20;99.90;;;;;;6100576;23;20433;-77
2023/08/03 08:20:07;;;;;;;4.10;1.20;;;21.00;99.90;;;;;;6104643;23;20549;-78
2023/08/03 08:23:07;;;;;;;2.20;1.10;;;21.10;99.90;;;;;;6182810;23;20449;-79
2023/08/03 08:26:05;;;;;;;2.13;1.10;;;21.00;99.90;;;;;;6225772;23;20434;-81
2023/08/03 08:31:57;;;;;;;;;;;;;;;;;;;;;
2023/08/03 08:34:37;;;;;;;2.90;0.80;;;20.80;99.90;;;;;;6221024;23;20880;-80
2023/08/03 08:37:07;;;;;;;1.60;0.83;;;20.70;99.90;;;;;;6222483;23;20448;-79
2023/08/03 08:40:20;;;;;;;1.90;1.13;;;20.90;99.90;;;;;;6221344;23;20442;-79
2023/08/03 08:43:31;;;;;;;;;;;;;;;;;;;;;
2023/08/03 08:46:25;;;;;;;2.10;1.30;;;20.90;99.90;;;;;;6214077;23;20955;-79
2023/08/03 08:49:06;;;;;;;3.10;1.03;;;21.10;99.90;;;;;;6222608;23;20422;-78
2023/08/03 08:52:08;;;;;;;2.30;0.70;;;21.20;99.90;;;;;;6221705;23;20430;-80
2023/08/03 08:54:48;;;;;;;4.87;0.70;;;21.20;99.90;;;;;;6222372;23;20434;-80
2023/08/03 09:00:45;;;;;;;1.50;0.70;;;21.10;99.90;;;;;;6209085;23;20446;-78
2023/08/03 09:03:17;;;;;;;0.50;0.40;;;21.30;99.90;;;;;;6220687;23;20441;-78
2023/08/03 09:06:08;;;;;;;2.33;0.90;;;21.40;99.90;;;;;;6221436;23;20453;-78
2023/08/03 09:09:11;;;;;;;1.30;0.77;;;21.20;99.90;;;;;;6217712;23;20402;-78
2023/08/03 09:15:00;;;;;;;1.57;0.60;;;21.10;99.90;;;;;;6213176;23;20422;-77
2023/08/03 09:17:34;;;;;;;3.07;0.60;;;21.10;99.90;;;;;;6217693;23;20628;-78
2023/08/03 09:20:08;;;;;;;5.50;0.90;;;21.30;99.90;;;;;;6217497;23;20440;-79
2023/08/03 09:23:02;;;;;;;2.13;0.80;;;21.60;99.90;;;;;;6218148;23;20797;-79
2023/08/03 09:25:54;;;;;;;3.80;1.03;;;21.70;99.90;;;;;;6217416;23;20430;-79
2023/08/03 09:28:48;;;;;;;1.90;1.00;;;22.00;99.90;;;;;;6225233;23;20402;-79
2023/08/03 09:31:29;;;;;;;1.87;0.63;;;22.50;99.90;;;;;;6224247;23;20561;-79
2023/08/03 09:34:04;;;;;;;1.13;0.93;;;22.50;99.90;;;;;;6217739;23;20500;-79
2023/08/03 09:36:47;;;;;;;0.83;0.67;;;22.60;99.90;;;;;;6219091;23;20402;-79
2023/08/03 09:39:16;;;;;;;1.83;0.70;;;22.90;99.90;;;;;;6219757;23;20482;-79
2023/08/03 09:41:53;;;;;;;1.10;0.60;;;22.70;99.90;;;;;;6217693;23;20414;-78
2023/08/03 09:44:39;;;;;;;0.67;0.60;;;22.50;99.90;;;;;;6220711;23;20917;-79
2023/08/03 09:47:22;;;;;;;2.03;0.57;;;23.10;99.90;;;;;;6222834;23;20417;-78
2023/08/03 09:49:55;;;;;;;0.60;0.60;;;23.00;99.90;;;;;;6215837;23;20417;-78
2023/08/03 09:52:30;;;;;;;1.17;0.87;;;22.40;99.90;;;;;;6216408;23;20421;-80
2023/08/03 09:55:08;;;;;;;1.23;0.73;;;22.50;99.90;;;;;;6216503;23;20457;-79
2023/08/03 09:57:48;;;;;;;2.50;0.73;;;22.90;99.90;;;;;;6217240;23;20477;-81
2023/08/03 10:00:22;;;;;;;3.03;0.60;;;23.10;99.90;;;;;;6214757;23;20803;-78
2023/08/03 10:03:00;;;;;;;1.03;0.67;;;22.70;99.90;;;;;;6215846;23;20445;-79
2023/08/03 10:05:43;;;;;;;2.03;0.60;;;22.80;99.90;;;;;;6218167;23;20442;-80
2023/08/03 10:08:16;;;;;;;0.70;0.67;;;22.60;99.90;;;;;;6219173;23;20505;-80
2023/08/03 10:11:08;;;;;;;2.20;0.80;;;22.60;99.90;;;;;;6217151;23;20705;-77
2023/08/03 10:13:42;;;;;;;1.60;0.73;;;22.30;99.90;;;;;;6215488;23;20410;-77
2023/08/03 10:16:11;;;;;;;0.77;0.53;;;22.10;99.90;;;;;;6215355;23;20421;-79
2023/08/03 10:18:44;;;;;;;1.17;0.73;;;22.20;99.90;;;;;;6215182;23;20407;-80
2023/08/03 10:21:20;;;;;;;1.90;0.67;;;21.90;99.90;;;;;;6214442;23;20410;-79
2023/08/03 10:24:12;;;;;;;3.50;0.93;;;22.10;99.90;;;;;;6216800;23;20505;-82
2023/08/03 10:26:51;;;;;;;0.80;0.80;;;22.10;99.90;;;;;;6217599;23;20410;-81
2023/08/03 10:29:55;;;;;;;0.97;0.60;;;22.20;99.90;;;;;;6215842;23;20406;-79
2023/08/03 10:32:29;;;;;;;1.13;0.87;;;22.30;99.90;;;;;;6219353;23;20378;-81
2023/08/03 10:35:24;;;;;;;1.10;1.00;;;22.30;99.90;;;;;;6219176;23;20430;-80
2023/08/03 10:37:55;;;;;;;4.30;0.80;;;22.70;99.90;;;;;;6219095;23;20410;-79
2023/08/03 10:40:28;;;;;;;1.50;0.53;;;22.50;99.90;;;;;;6218913;23;20454;-82
2023/08/03 10:43:15;;;;;;;1.60;0.60;;;22.30;99.90;;;;;;6218544;23;20817;-79
2023/08/03 10:45:47;;;;;;;1.23;0.73;;;22.10;99.90;;;;;;6217907;23;20488;-80
2023/08/03 10:48:49;;;;;;;1.07;0.60;;;22.10;99.90;;;;;;6218597;23;20745;-81
2023/08/03 10:51:26;;;;;;;1.67;0.60;;;21.70;99.90;;;;;;6218393;23;20485;-79
2023/08/03 10:54:05;;;;;;;1.03;0.43;;;21.70;99.90;;;;;;6219152;23;20412;-79
2023/08/03 10:56:36;;;;;;;0.80;0.80;;;21.90;99.90;;;;;;6218924;23;20438;-80
2023/08/03 10:59:10;;;;;;;0.87;0.77;;;21.70;99.90;;;;;;6219103;23;20960;-80
2023/08/03 11:01:43;;;;;;;2.20;0.63;;;21.90;99.90;;;;;;6219467;23;20410;-79
2023/08/03 11:04:26;;;;;;;1.27;0.80;;;21.90;99.90;;;;;;6219751;23;20497;-79
2023/08/03 11:07:01;;;;;;;1.03;0.70;;;22.00;99.90;;;;;;6220199;23;20466;-79
2023/08/03 11:09:36;;;;;;;1.23;0.70;;;22.20;99.90;;;;;;6217476;23;20411;-80
2023/08/03 11:12:09;;;;;;;2.20;0.73;;;22.40;99.90;;;;;;6215978;23;20756;-78
2023/08/03 11:14:41;;;;;;;0.70;0.70;;;22.60;99.90;;;;;;6218074;23;20438;-80
2023/08/03 11:17:16;;;;;;;0.60;0.60;;;22.50;99.90;;;;;;6216327;23;20421;-78
2023/08/03 11:19:51;;;;;;;2.93;0.90;;;22.60;99.90;;;;;;6220520;23;20528;-80
2023/08/03 11:22:23;;;;;;;1.33;0.47;;;22.60;99.90;;;;;;6221852;23;20418;-79
2023/08/03 11:24:54;;;;;;;2.17;0.80;;;22.80;99.90;;;;;;6222337;23;20437;-79
2023/08/03 11:27:30;;;;;;;0.90;0.67;;;22.70;99.90;;;;;;6222158;23;20406;-79
2023/08/03 11:30:03;;;;;;;0.90;0.50;;;23.00;99.90;;;;;;6218394;23;20410;-79
2023/08/03 11:32:35;;;;;;;0.80;0.70;;;23.10;99.90;;;;;;6218221;23;20421;-80
2023/08/03 11:35:06;;;;;;;1.83;0.93;;;23.00;99.90;;;;;;6217769;23;20484;-78
2023/08/03 11:37:39;;;;;;;2.40;0.70;;;23.00;99.90;;;;;;6220267;23;20465;-78
2023/08/03 11:40:12;;;;;;;0.90;0.70;;;22.90;99.90;;;;;;6228583;23;20445;-79
2023/08/03 11:42:44;;;;;;;1.33;0.70;;;22.70;99.90;;;;;;6233160;23;20410;-79
2023/08/03 11:45:24;;;;;;;1.87;0.87;;;22.90;99.90;;;;;;6229511;23;20437;-78
2023/08/03 11:47:57;;;;;;;1.13;1.00;;;23.00;99.90;;;;;;6231510;23;20429;-78
2023/08/03 11:50:34;;;;;;;1.10;0.73;;;22.90;99.90;;;;;;6234592;23;20478;-78
2023/08/03 11:53:09;;;;;;;1.00;0.90;;;23.10;99.90;;;;;;6232876;23;20421;-78
2023/08/03 11:55:49;;;;;;;2.67;0.50;;;23.60;99.90;;;;;;6229844;23;20487;-78
2023/08/03 11:58:17;;;;;;;1.20;0.77;;;23.70;99.90;;;;;;6228220;23;20410;-79
2023/08/03 12:00:46;;;;;;;0.80;0.60;;;;;;;;;;6226819;23;20487;-78
2023/08/03 12:03:35;;;;;;;1.60;0.70;;;24.20;99.90;;;;;;6224923;23;20410;-80
2023/08/03 12:06:09;;;;;;;2.83;0.70;;;24.40;99.90;;;;;;6225076;23;20430;-81
2023/08/03 12:08:45;;;;;;;1.33;0.70;;;24.40;99.90;;;;;;6227345;23;20417;-77
2023/08/03 12:11:25;;;;;;;1.63;0.70;;;24.60;99.90;;;;;;6226292;23;20405;-79
2023/08/03 12:13:54;;;;;;;1.03;0.80;;;24.00;99.90;;;;;;6226864;23;20527;-78
2023/08/03 12:16:24;;;;;;;1.87;0.70;;;23.90;99.90;;;;;;6225808;23;20445;-80
2023/08/03 12:18:55;;;;;;;0.53;0.53;;;23.70;99.90;;;;;;6223521;23;20430;-78
2023/08/03 12:21:25;;;;;;;1.33;0.70;;;23.70;99.90;;;;;;6228464;23;20434;-78
2023/08/03 12:23:58;;;;;;;0.80;0.50;;;24.10;99.90;;;;;;6227121;23;20425;-80
2023/08/03 12:26:32;;;;;;;0.60;0.60;;;23.90;99.90;;;;;;6233103;22;20418;-77
2023/08/03 12:29:03;;;;;;;1.80;0.70;;;24.10;99.90;;;;;;6239137;22;20414;-76
2023/08/03 12:31:37;;;;;;;1.10;0.60;;;24.30;99.90;;;;;;6228816;23;20468;-76
2023/08/03 12:34:12;;;;;;;1.43;0.60;;;24.40;99.90;;;;;;6225162;23;20509;-78
2023/08/03 12:36:48;;;;;;;0.80;0.80;;;24.20;99.90;;;;;;6221712;23;20397;-79
2023/08/03 12:39:18;;;;;;;1.37;0.70;;;23.90;99.90;;;;;;6224950;23;20405;-76
2023/08/03 12:41:50;;;;;;;1.23;0.53;;;24.40;99.90;;;;;;6227254;23;20576;-78
2023/08/03 12:44:24;;;;;;;1.13;1.00;;;24.80;99.90;;;;;;6225481;23;20391;-78
2023/08/03 12:46:52;;;;;;;1.03;0.60;;;25.10;99.90;;;;;;6226225;23;20449;-77
2023/08/03 12:49:24;;;;;;;0.77;0.77;;;25.10;99.90;;;;;;6222160;23;20418;-81
2023/08/03 12:54:42;;;;;;;1.10;0.67;;;24.40;99.90;;;;;;6220582;23;20780;-80
2023/08/03 12:57:14;;;;;;;0.90;0.50;;;24.50;99.90;;;;;;6225434;23;20413;-80
2023/08/03 13:00:11;;;;;;;0.87;0.67;;;24.30;99.90;;;;;;6226322;23;20441;-80
2023/08/03 13:02:42;;;;;;;1.00;0.73;;;24.50;99.90;;;;;;6214457;23;20417;-77
2023/08/03 13:05:18;;;;;;;0.73;0.73;;;25.00;99.90;;;;;;6222457;23;20430;-78
2023/08/03 13:07:52;;;;;;;2.33;1.33;;;25.10;99.90;;;;;;6226055;23;20425;-82
2023/08/03 13:10:28;;;;;;;2.03;0.80;;;25.30;99.90;;;;;;6225544;23;20452;-79
2023/08/03 13:13:03;;;;;;;1.03;0.60;;;25.10;99.90;;;;;;6224580;23;20496;-80
2023/08/03 13:15:38;;;;;;;0.83;0.67;;;25.40;99.90;;;;;;6222940;23;20503;-80
2023/08/03 13:18:23;;;;;;;0.90;0.77;;;25.50;99.90;;;;;;6226923;23;20409;-79
2023/08/03 13:21:00;;;;;;;4.43;0.60;;;24.40;99.90;;;;;;6227530;23;20434;-80
2023/08/03 13:23:37;;;;;;;0.60;0.50;;;23.80;99.90;;;;;;6227860;23;20411;-80
2023/08/03 13:26:10;;;;;;;2.00;0.63;;;24.20;99.90;;;;;;6226584;23;20966;-81
2023/08/03 13:28:38;;;;;;;0.77;0.70;;;24.80;99.90;;;;;;6224911;23;20414;-79
2023/08/03 13:31:15;;;;;;;1.53;0.80;;;25.20;99.90;;;;;;6222852;23;20700;-78
2023/08/03 13:33:42;;;;;;;1.27;0.53;;;25.50;99.90;;;;;;6219546;23;20379;-78
2023/08/03 13:36:12;;;;;;;0.77;0.60;;;25.30;99.90;;;;;;6220513;23;20430;-78
2023/08/03 13:38:46;;;;;;;1.87;0.53;;;24.70;99.90;;;;;;6221152;23;20513;-79
2023/08/03 13:41:18;;;;;;;1.43;0.90;;;24.30;99.90;;;;;;6220423;23;20620;-79
2023/08/03 13:43:56;;;;;;;1.20;0.70;;;24.50;99.90;;;;;;6221773;23;20402;-79
2023/08/03 13:46:27;;;;;;;0.83;0.50;;;24.70;99.90;;;;;;6219785;23;20773;-79
2023/08/03 13:48:56;;;;;;;1.17;0.63;;;24.90;99.90;;;;;;6219051;23;20842;-80
2023/08/03 13:51:26;;;;;;;0.93;0.60;;;24.90;99.90;;;;;;6217018;23;20406;-79
2023/08/03 13:53:57;;;;;;;0.97;0.70;;;25.10;99.90;;;;;;6217303;23;20482;-80
2023/08/03 13:56:28;;;;;;;0.60;0.60;;;24.80;99.90;;;;;;6218727;23;20430;-78
2023/08/03 13:58:58;;;;;;;0.60;0.50;;;25.10;99.90;;;;;;6219300;23;20405;-79
2023/08/03 14:01:36;;;;;;;0.80;0.80;;;25.30;99.90;;;;;;6222305;23;20513;-79
2023/08/03 14:04:08;;;;;;;0.80;0.70;;;25.60;99.90;;;;;;6227336;23;20456;-79
2023/08/03 14:06:40;;;;;;;0.70;0.70;;;26.20;99.90;;;;;;6229679;23;20430;-77
2023/08/03 14:09:08;;;;;;;1.23;0.60;;;25.80;99.90;;;;;;6232583;23;20875;-79
2023/08/03 14:11:41;;;;;;;0.70;0.70;;;24.90;99.90;;;;;;6232283;23;20402;-79
2023/08/03 14:14:36;;;;;;;0.40;0.40;;;25.20;99.90;;;;;;6229247;23;20410;-78
2023/08/03 14:17:04;;;;;;;1.10;0.73;;;25.10;99.90;;;;;;6226369;23;20406;-80
2023/08/03 14:19:50;;;;;;;2.20;0.87;;;25.30;99.90;;;;;;6229734;23;20410;-80
2023/08/03 14:22:23;;;;;;;0.70;0.60;;;25.50;99.90;;;;;;6229275;23;20486;-78
2023/08/03 14:24:56;;;;;;;0.90;0.60;;;25.20;99.90;;;;;;6227414;23;20426;-79
2023/08/03 14:27:28;;;;;;;0.50;0.47;;;25.30;99.90;;;;;;6223026;23;20410;-81
2023/08/03 14:30:05;;;;;;;0.70;0.70;;;25.60;99.90;;;;;;6223448;23;20390;-78
2023/08/03 14:32:37;;;;;;;1.10;0.70;;;25.60;99.90;;;;;;6221343;23;20436;-81
2023/08/03 14:35:11;;;;;;;0.53;0.53;;;25.50;99.90;;;;;;6219826;23;20952;-81
2023/08/03 14:37:42;;;;;;;1.23;0.47;;;25.80;99.90;;;;;;6221964;23;20409;-80
2023/08/03 14:40:15;;;;;;;2.43;1.73;;;26.00;99.90;;;;;;6218933;23;20516;-78
2023/08/03 14:42:45;;;;;;;1.20;0.70;;;26.10;99.90;;;;;;6219990;23;20390;-79
2023/08/03 14:45:23;;;;;;;0.80;0.60;;;26.20;99.90;;;;;;6218470;23;20428;-80
2023/08/03 14:47:54;;;;;;;0.47;0.47;;;25.80;99.90;;;;;;6217277;23;20425;-80
2023/08/03 14:50:30;;;;;;;0.90;0.70;;;25.90;99.90;;;;;;6218276;23;20910;-79
2023/08/03 14:53:18;;;;;;;1.80;0.60;;;25.80;99.90;;;;;;6216101;23;20493;-79
2023/08/03 14:56:09;;;;;;;1.20;0.70;;;25.80;99.90;;;;;;6224107;23;20441;-78
2023/08/03 14:58:48;;;;;;;2.70;0.70;;;25.40;99.90;;;;;;6232100;23;20441;-78
2023/08/03 15:01:27;;;;;;;1.67;0.70;;;25.50;99.90;;;;;;6227908;23;20511;-78
2023/08/03 15:04:01;;;;;;;0.63;0.63;;;25.20;99.90;;;;;;6223407;23;20410;-78
2023/08/03 15:06:35;;;;;;;2.10;0.60;;;25.20;99.90;;;;;;6227277;23;20434;-78
2023/08/03 15:09:14;;;;;;;1.07;0.73;;;24.90;99.90;;;;;;6222227;23;20828;-77
2023/08/03 15:11:44;;;;;;;2.00;0.93;;;25.00;99.90;;;;;;6221433;23;20441;-79
2023/08/03 15:14:15;;;;;;;0.60;0.60;;;25.10;99.90;;;;;;6221096;23;20425;-78
2023/08/03 15:16:43;;;;;;;2.93;0.50;;;25.10;99.90;;;;;;6221565;23;20502;-80
2023/08/03 15:19:11;;;;;;;1.13;0.73;;;25.10;99.90;;;;;;6223188;23;20410;-79
2023/08/03 15:21:40;;;;;;;1.43;0.70;;;25.20;99.90;;;;;;6220163;23;20438;-76
2023/08/03 15:24:13;;;;;;;1.03;0.83;;;25.30;99.90;;;;;;6220727;23;20448;-79
2023/08/03 15:26:47;;;;;;;1.47;0.60;;;25.70;99.90;;;;;;6220571;23;20414;-80
2023/08/03 15:29:15;;;;;;;1.03;0.60;;;26.00;99.90;;;;;;6221081;23;20400;-78
2023/08/03 15:31:43;;;;;;;1.17;0.60;;;25.50;99.90;;;;;;6221660;23;20482;-80
2023/08/03 15:34:19;;;;;;;0.50;0.50;;;25.30;99.90;;;;;;6220785;23;20391;-79
2023/08/03 15:36:50;;;;;;;0.70;0.57;;;25.50;99.90;;;;;;6219706;23;20410;-80
2023/08/03 15:39:23;;;;;;;0.93;0.50;;;25.20;99.90;;;;;;6219254;23;20493;-78
2023/08/03 15:41:55;;;;;;;0.60;0.50;;;25.20;99.90;;;;;;6221168;23;20434;-79
2023/08/03 15:44:23;;;;;;;0.40;0.40;;;25.20;99.90;;;;;;6218769;23;20437;-77
2023/08/03 15:46:55;;;;;;;0.43;0.43;;;25.40;99.90;;;;;;6218497;23;20433;-78
2023/08/03 15:49:26;;;;;;;0.57;0.30;;;25.20;99.90;;;;;;6219865;23;20406;-79
2023/08/03 15:51:57;;;;;;;0.50;0.40;;;25.10;99.90;;;;;;6220815;23;20417;-80
2023/08/03 15:54:33;;;;;;;0.53;0.40;;;24.70;99.90;;;;;;6220504;23;20426;-79
2023/08/03 15:57:02;;;;;;;0.30;0.30;;;24.40;99.90;;;;;;6220293;23;20397;-78
2023/08/03 15:59:31;;;;;;;1.03;0.40;;;24.30;99.90;;;;;;6217927;23;21155;-78
2023/08/03 16:02:02;;;;;;;0.40;0.40;;;24.10;99.90;;;;;;6219533;23;20505;-80
2023/08/03 16:04:30;;;;;;;0.97;0.57;;;24.20;99.90;;;;;;6218157;23;20402;-80
2023/08/03 16:07:02;;;;;;;0.60;0.60;;;23.90;99.90;;;;;;6217625;23;20398;-80
2023/08/03 16:09:35;;;;;;;0.77;0.50;;;23.70;99.90;;;;;;6217063;23;20418;-77
2023/08/03 16:12:05;;;;;;;2.63;0.50;;;23.70;99.90;;;;;;6219418;23;20378;-79